Time,TemperatureF,DewpointF,PressureIn,WindDirection,WindDirectionDegrees,WindSpeedMPH,WindSpeedGustMPH,Humidity,HourlyPrecipIn,Conditions,Clouds,dailyrainin,SoftwareType,DateUTC
2013-01-06 00:11:00,28.4,25.0,30.12,SSE,160,8.0,-999.0,86,-99.99,,,0.00,weatherlink.com 1.10,2013-01-06 08:11:00,
2013-01-06 00:26:00,28.8,25.0,30.11,SSE,155,10.0,-999.0,85,-99.99,,,0.00,weatherlink.com 1.10,2013-01-06 08:26:00,
2013-01-06 00:41:00,27.7,24.0,30.12,SSE,165,10.0,-999.0,86,-99.99,,,0.00,weatherlink.com 1.10,2013-01-06 08:41:00,
2013-01-06 00:56:00,26.8,24.0,30.10,SSE,162,10.0,-999.0,87,-99.99,,,0.00,weatherlink.com 1.10,2013-01-06 08:56:00,
2013-01-06 01:11:00,26.9,24.0,30.11,SSE,156,6.0,-999.0,87,-99.99,,,0.00,weatherlink.com 1.10,2013-01-06 09:11:00,
2013-01-06 01:26:00,28.4,25.0,30.11,SSE,162,7.0,-999.0,87,-99.99,,,0.00,weatherlink.com 1.10,2013-01-06 09:26:00,
2013-01-06 01:41:00,28.4,25.0,30.12,SSE,160,8.0,-999.0,85,-99.99,,,0.00,weatherlink.com 1.10,2013-01-06 09:41:00,
2013-01-06 01:56:00,28.0,24.0,30.12,SSW,197,6.0,-999.0,86,-99.99,,,0.00,weatherlink.com 1.10,2013-01-06 09:56:00,
2013-01-06 02:11:00,28.3,25.0,30.12,SSE,167,7.0,-999.0,86,-99.99,,,0.00,weatherlink.com 1.10,2013-01-06 10:11:00,
2013-01-06 02:26:00,29.0,25.0,30.12,SE,141,10.0,-999.0,85,-99.99,,,0.00,weatherlink.com 1.10,2013-01-06 10:26:00,
2013-01-06 02:41:00,29.6,25.0,30.12,SSE,154,12.0,-999.0,84,-99.99,,,0.00,weatherlink.com 1.10,2013-01-06 10:41:00,
2013-01-06 02:56:00,29.2,25.0,30.12,SSE,156,7.0,-999.0,84,-99.99,,,0.00,weatherlink.com 1.10,2013-01-06 10:56:00,
2013-01-06 03:11:00,28.6,25.0,30.13,SSE,148,9.0,-999.0,85,-99.99,,,0.00,weatherlink.com 1.10,2013-01-06 11:11:00,
2013-01-06 03:26:00,28.9,25.0,30.12,SE,146,8.0,-999.0,85,-99.99,,,0.00,weatherlink.com 1.10,2013-01-06 11:26:00,
2013-01-06 03:41:00,29.0,25.0,30.12,SE,143,8.0,-999.0,85,-99.99,,,0.00,weatherlink.com 1.10,2013-01-06 11:41:00,
2013-01-06 03:56:00,29.3,25.0,30.13,SE,143,6.0,-999.0,84,-99.99,,,0.00,weatherlink.com 1.10,2013-01-06 11:56:00,
2013-01-06 04:11:00,29.2,25.0,30.13,SSE,155,10.0,-999.0,84,-99.99,,,0.00,weatherlink.com 1.10,2013-01-06 12:11:00,
2013-01-06 04:26:00,28.9,25.0,30.12,SSE,148,9.0,-999.0,85,-99.99,,,0.00,weatherlink.com 1.10,2013-01-06 12:26:00,
2013-01-06 04:41:00,28.7,25.0,30.12,SSE,153,10.0,-999.0,86,-99.99,,,0.00,weatherlink.com 1.10,2013-01-06 12:41:00,
2013-01-06 04:56:00,29.7,26.0,30.12,ESE,122,7.0,-999.0,86,-99.99,,,0.00,weatherlink.com 1.10,2013-01-06 12:56:00,
2013-01-06 05:11:00,29.0,25.0,30.12,SSE,148,7.0,-999.0,86,-99.99,,,0.00,weatherlink.com 1.10,2013-01-06 13:11:00,
2013-01-06 05:26:00,29.2,26.0,30.11,SSE,148,9.0,-999.0,87,-99.99,,,0.00,weatherlink.com 1.10,2013-01-06 13:26:00,
2013-01-06 05:41:00,29.2,26.0,30.10,SE,141,9.0,-999.0,86,-99.99,,,0.00,weatherlink.com 1.10,2013-01-06 13:41:00,
2013-01-06 05:56:00,28.7,25.0,30.10,SSE,153,12.0,-999.0,87,-99.99,,,0.00,weatherlink.com 1.10,2013-01-06 13:56:00,
2013-01-06 06:11:00,28.5,25.0,30.11,SSE,152,9.0,-999.0,88,-99.99,,,0.00,weatherlink.com 1.10,2013-01-06 14:11:00,
2013-01-06 06:26:00,28.6,25.0,30.11,SE,141,5.0,-999.0,87,-99.99,,,0.00,weatherlink.com 1.10,2013-01-06 14:26:00,
2013-01-06 06:41:00,28.9,26.0,30.12,SSE,147,6.0,-999.0,87,-99.99,,,0.00,weatherlink.com 1.10,2013-01-06 14:41:00,
2013-01-06 06:56:00,29.0,25.0,30.12,SE,144,4.0,-999.0,86,-99.99,,,0.00,weatherlink.com 1.10,2013-01-06 14:56:00,
2013-01-06 07:11:00,28.8,25.0,30.13,SE,136,10.0,-999.0,86,-99.99,,,0.00,weatherlink.com 1.10,2013-01-06 15:11:00,
2013-01-06 07:26:00,29.2,26.0,30.13,SE,136,9.0,-999.0,86,-99.99,,,0.00,weatherlink.com 1.10,2013-01-06 15:26:00,
2013-01-06 07:41:00,29.2,25.0,30.14,SE,145,7.0,-999.0,85,-99.99,,,0.00,weatherlink.com 1.10,2013-01-06 15:41:00,
2013-01-06 07:56:00,28.9,25.0,30.14,SSE,153,10.0,-999.0,85,-99.99,,,0.00,weatherlink.com 1.10,2013-01-06 15:56:00,
2013-01-06 08:11:00,29.1,25.0,30.14,SE,145,8.0,-999.0,85,-99.99,,,0.00,weatherlink.com 1.10,2013-01-06 16:11:00,
2013-01-06 08:26:00,28.8,25.0,30.14,SSE,150,11.0,-999.0,85,-99.99,,,0.00,weatherlink.com 1.10,2013-01-06 16:26:00,
2013-01-06 08:41:00,28.6,25.0,30.15,SSE,165,8.0,-999.0,85,-99.99,,,0.00,weatherlink.com 1.10,2013-01-06 16:41:00,
2013-01-06 08:56:00,28.6,25.0,30.15,South,172,5.0,-999.0,85,-99.99,,,0.00,weatherlink.com 1.10,2013-01-06 16:56:00,
2013-01-06 09:11:00,28.8,25.0,30.16,SE,135,9.0,-999.0,84,-99.99,,,0.00,weatherlink.com 1.10,2013-01-06 17:11:00,
2013-01-06 09:26:00,30.2,25.0,30.16,SE,143,6.0,-999.0,82,-99.99,,,0.00,weatherlink.com 1.10,2013-01-06 17:26:00,
2013-01-06 09:41:00,30.9,26.0,30.16,SE,135,8.0,-999.0,82,-99.99,,,0.00,weatherlink.com 1.10,2013-01-06 17:41:00,
2013-01-06 09:56:00,31.8,26.0,30.16,SSE,152,9.0,-999.0,80,-99.99,,,0.00,weatherlink.com 1.10,2013-01-06 17:56:00,
2013-01-06 10:11:00,32.4,27.0,30.16,SSE,150,7.0,-999.0,79,-99.99,,,0.00,weatherlink.com 1.10,2013-01-06 18:11:00,
2013-01-06 10:26:00,33.2,27.0,30.16,SSE,155,7.0,-999.0,78,-99.99,,,0.00,weatherlink.com 1.10,2013-01-06 18:26:00,
2013-01-06 10:41:00,34.0,28.0,30.16,SSE,156,7.0,-999.0,78,-99.99,,,0.00,weatherlink.com 1.10,2013-01-06 18:41:00,
2013-01-06 10:56:00,34.8,28.0,30.16,SSE,158,7.0,-999.0,77,-99.99,,,0.00,weatherlink.com 1.10,2013-01-06 18:56:00,
2013-01-06 11:11:00,35.4,29.0,30.15,SSE,163,7.0,-999.0,77,-99.99,,,0.00,weatherlink.com 1.10,2013-01-06 19:11:00,
2013-01-06 11:26:00,35.6,29.0,30.15,SSE,157,7.0,-999.0,76,-99.99,,,0.00,weatherlink.com 1.10,2013-01-06 19:26:00,
2013-01-06 12:12:00,37.3,29.0,30.14,SSE,158,4.0,-999.0,73,-99.99,,,0.00,weatherlink.com 1.10,2013-01-06 20:12:00,
2013-01-06 12:26:00,37.6,30.0,30.13,SSE,153,4.0,-999.0,73,-99.99,,,0.00,weatherlink.com 1.10,2013-01-06 20:26:00,
2013-01-06 12:41:00,37.3,29.0,30.12,SSE,150,4.0,-999.0,73,-99.99,,,0.00,weatherlink.com 1.10,2013-01-06 20:41:00,
2013-01-06 12:56:00,37.4,30.0,30.11,SE,145,5.0,-999.0,74,-99.99,,,0.00,weatherlink.com 1.10,2013-01-06 20:56:00,
2013-01-06 13:11:00,38.4,30.0,30.10,SSE,166,6.0,-999.0,71,-99.99,,,0.00,weatherlink.com 1.10,2013-01-06 21:11:00,
2013-01-06 13:26:00,37.5,30.0,30.09,SSE,150,9.0,-999.0,73,-99.99,,,0.00,weatherlink.com 1.10,2013-01-06 21:26:00,
2013-01-06 13:41:00,38.1,29.0,30.09,SSE,161,7.0,-999.0,71,-99.99,,,0.00,weatherlink.com 1.10,2013-01-06 21:41:00,
2013-01-06 13:56:00,38.3,30.0,30.10,South,176,5.0,-999.0,71,-99.99,,,0.00,weatherlink.com 1.10,2013-01-06 21:56:00,
2013-01-06 14:11:00,37.7,29.0,30.10,SE,136,7.0,-999.0,72,-99.99,,,0.00,weatherlink.com 1.10,2013-01-06 22:11:00,
2013-01-06 14:26:00,37.5,29.0,30.10,SSE,150,5.0,-999.0,72,-99.99,,,0.00,weatherlink.com 1.10,2013-01-06 22:26:00,
2013-01-06 14:41:00,37.4,29.0,30.10,SSE,153,3.0,-999.0,72,-99.99,,,0.00,weatherlink.com 1.10,2013-01-06 22:41:00,
2013-01-06 14:56:00,37.3,29.0,30.10,SSE,153,6.0,-999.0,71,-99.99,,,0.00,weatherlink.com 1.10,2013-01-06 22:56:00,
2013-01-06 15:11:00,37.5,29.0,30.10,SSE,162,5.0,-999.0,71,-99.99,,,0.00,weatherlink.com 1.10,2013-01-06 23:11:00,
2013-01-06 15:26:00,37.4,28.0,30.10,SSE,164,4.0,-999.0,70,-99.99,,,0.00,weatherlink.com 1.10,2013-01-06 23:26:00,
2013-01-06 15:41:00,36.7,28.0,30.09,SSE,152,5.0,-999.0,71,-99.99,,,0.00,weatherlink.com 1.10,2013-01-06 23:41:00,
2013-01-06 15:56:00,35.7,27.0,30.10,SSE,158,4.0,-999.0,72,-99.99,,,0.00,weatherlink.com 1.10,2013-01-06 23:56:00,
2013-01-06 16:11:00,34.1,27.0,30.10,SSE,150,5.0,-999.0,74,-99.99,,,0.00,weatherlink.com 1.10,2013-01-07 00:11:00,
2013-01-06 16:26:00,32.9,26.0,30.09,SE,146,5.0,-999.0,76,-99.99,,,0.00,weatherlink.com 1.10,2013-01-07 00:26:00,
2013-01-06 16:41:00,31.9,26.0,30.10,SSE,152,5.0,-999.0,79,-99.99,,,0.00,weatherlink.com 1.10,2013-01-07 00:41:00,
2013-01-06 16:56:00,31.4,26.0,30.09,SSE,158,6.0,-999.0,79,-99.99,,,0.00,weatherlink.com 1.10,2013-01-07 00:56:00,
2013-01-06 17:11:00,31.1,25.0,30.08,SSE,148,7.0,-999.0,78,-99.99,,,0.00,weatherlink.com 1.10,2013-01-07 01:11:00,
2013-01-06 17:26:00,31.3,25.0,30.10,SSW,210,3.0,-999.0,78,-99.99,,,0.00,weatherlink.com 1.10,2013-01-07 01:26:00,
2013-01-06 17:41:00,29.0,23.0,30.11,SE,139,1.0,-999.0,78,-99.99,,,0.00,weatherlink.com 1.10,2013-01-07 01:41:00,
2013-01-06 17:56:00,28.0,24.0,30.11,SE,136,2.0,-999.0,84,-99.99,,,0.00,weatherlink.com 1.10,2013-01-07 01:56:00,
2013-01-06 18:11:00,29.3,24.0,30.11,SE,131,2.0,-999.0,81,-99.99,,,0.00,weatherlink.com 1.10,2013-01-07 02:11:00,
2013-01-06 18:27:00,30.3,25.0,30.11,ESE,117,2.0,-999.0,79,-99.99,,,0.00,weatherlink.com 1.10,2013-01-07 02:27:00,
2013-01-06 18:42:00,29.8,25.0,30.11,SSE,155,6.0,-999.0,82,-99.99,,,0.00,weatherlink.com 1.10,2013-01-07 02:42:00,
2013-01-06 18:58:00,32.9,26.0,30.10,SSE,149,7.0,-999.0,77,-99.99,,,0.00,weatherlink.com 1.10,2013-01-07 02:58:00,
2013-01-06 19:12:00,31.5,25.0,30.10,SE,128,0.0,-999.0,77,-99.99,,,0.00,weatherlink.com 1.10,2013-01-07 03:12:00,
2013-01-06 19:27:00,31.4,26.0,30.08,SE,139,10.0,-999.0,79,-99.99,,,0.00,weatherlink.com 1.10,2013-01-07 03:27:00,
2013-01-06 19:42:00,31.6,26.0,30.08,SE,139,10.0,-999.0,79,-99.99,,,0.00,weatherlink.com 1.10,2013-01-07 03:42:00,
2013-01-06 19:57:00,31.9,26.0,30.08,SE,135,10.0,-999.0,78,-99.99,,,0.00,weatherlink.com 1.10,2013-01-07 03:57:00,
2013-01-06 20:12:00,32.7,26.0,30.09,SE,131,12.0,-999.0,77,-99.99,,,0.00,weatherlink.com 1.10,2013-01-07 04:12:00,
2013-01-06 20:27:00,33.0,26.0,30.10,SE,132,12.0,-999.0,76,-99.99,,,0.00,weatherlink.com 1.10,2013-01-07 04:27:00,
2013-01-06 20:42:00,33.6,26.0,30.10,SE,134,10.0,-999.0,74,-99.99,,,0.00,weatherlink.com 1.10,2013-01-07 04:42:00,
2013-01-06 20:57:00,34.4,26.0,30.10,ESE,121,14.0,-999.0,72,-99.99,,,0.00,weatherlink.com 1.10,2013-01-07 04:57:00,
2013-01-06 21:27:00,33.9,26.0,30.10,SSE,147,12.0,-999.0,73,-99.99,,,0.00,weatherlink.com 1.10,2013-01-07 05:27:00,
2013-01-06 21:42:00,33.7,26.0,30.10,SE,146,9.0,-999.0,74,-99.99,,,0.00,weatherlink.com 1.10,2013-01-07 05:42:00,
2013-01-06 21:57:00,33.5,26.0,30.09,SSE,148,14.0,-999.0,74,-99.99,,,0.00,weatherlink.com 1.10,2013-01-07 05:57:00,
2013-01-06 22:12:00,33.2,26.0,30.09,SSE,153,11.0,-999.0,75,-99.99,,,0.00,weatherlink.com 1.10,2013-01-07 06:12:00,
2013-01-06 22:27:00,33.2,26.0,30.08,SSE,154,19.0,-999.0,75,-99.99,,,0.00,weatherlink.com 1.10,2013-01-07 06:27:00,
2013-01-06 22:42:00,33.3,26.0,30.08,SSE,150,12.0,-999.0,74,-99.99,,,0.00,weatherlink.com 1.10,2013-01-07 06:42:00,
2013-01-06 22:57:00,33.7,26.0,30.08,SE,146,13.0,-999.0,74,-99.99,,,0.00,weatherlink.com 1.10,2013-01-07 06:57:00,
2013-01-06 23:12:00,33.3,26.0,30.07,SSE,153,16.0,-999.0,74,-99.99,,,0.00,weatherlink.com 1.10,2013-01-07 07:12:00,
2013-01-06 23:27:00,33.4,26.0,30.06,SSE,148,14.0,-999.0,73,-99.99,,,0.00,weatherlink.com 1.10,2013-01-07 07:27:00,
2013-01-06 23:42:00,33.2,25.0,30.05,SSE,150,11.0,-999.0,72,-99.99,,,0.00,weatherlink.com 1.10,2013-01-07 07:42:00,
2013-01-06 23:57:00,32.8,25.0,30.05,SSE,152,16.0,-999.0,74,-99.99,,,0.00,weatherlink.com 1.10,2013-01-07 07:57:00,